Terminal Aerodrome Forecast
Issued by NWS

Home | Current Version | Previous Version | Text Only | Print | Product List | Glossary On
Versions: 1 2 3 4 5 6 7 8 9 10 11 12 13 14 15 16 17 18
000
FTUS41 KBOX 250521
TAFBED
TAF
KBED 250521Z 2506/2606 20004KT P6SM SKC
     FM251700 21010G18KT P6SM BKN250
     FM260200 VRB03KT P6SM VCSH OVC045
     FM260500 27004KT P6SM OVC045=

USA.gov is the U.S. government's official web portal to all federal, state and local government web resources and services.